Time;durP1;ratioP1;P1;durP2;ratioP2;P2;SDS_P1;SDS_P2;PMS_P1;PMS_P2;Temp;Humidity;BMP_temperature;BMP_pressure;BME280_temperature;BME280_humidity;BME280_pressure;Samples;Min_cycle;Max_cycle;Signal;HPM_P1;HPM_P2
2022/03/30 00:01:09;;;;;;;14.00;5.95;;;;;;;13.76;39.86;99371.44;18305733;32;20120;-64
2022/03/30 00:11:13;;;;;;;13.75;6.03;;;;;;;13.24;41.79;99346.75;18305695;32;20090;-65
2022/03/30 00:21:19;;;;;;;14.18;6.07;;;;;;;13.01;42.17;99355.31;18305396;32;20460;-65
2022/03/30 00:31:22;;;;;;;17.67;7.82;;;;;;;12.81;42.61;99348.00;18305120;32;20377;-65
2022/03/30 00:41:29;;;;;;;16.45;5.55;;;;;;;12.59;43.43;99344.22;18304942;32;20093;-65
2022/03/30 00:51:32;;;;;;;13.75;6.82;;;;;;;12.47;44.05;99344.56;18304510;32;20090;-65
2022/03/30 01:01:37;;;;;;;16.12;7.00;;;;;;;12.00;45.18;99347.47;18305084;32;20125;-65
2022/03/30 01:11:41;;;;;;;19.15;8.18;;;;;;;12.17;44.81;99332.22;18303612;32;20101;-65
2022/03/30 01:21:46;;;;;;;18.58;7.47;;;;;;;12.19;44.63;99329.59;18303275;32;20094;-65
2022/03/30 01:42:12;;;;;;;16.93;7.13;;;;;;;12.18;45.15;99302.56;18301394;32;20112;-65
2022/03/30 01:52:16;;;;;;;17.62;7.47;;;;;;;11.92;46.10;99295.38;18301509;32;20089;-65
2022/03/30 02:02:21;;;;;;;14.25;6.15;;;;;;;11.82;46.40;99289.53;18308667;32;20711;-65
2022/03/30 02:12:25;;;;;;;14.10;6.35;;;;;;;11.58;46.84;99291.84;18308939;32;20093;-65
2022/03/30 02:22:30;;;;;;;17.48;7.07;;;;;;;11.41;46.59;99278.31;18308753;32;20094;-65
2022/03/30 02:32:34;;;;;;;13.50;6.60;;;;;;;11.05;47.43;99284.34;18307570;32;20391;-65
2022/03/30 02:42:38;;;;;;;14.00;6.68;;;;;;;10.76;48.26;99280.59;18301794;32;20097;-65
2022/03/30 02:52:42;;;;;;;13.77;6.18;;;;;;;10.39;48.81;99280.44;18301708;32;20749;-65
2022/03/30 03:02:46;;;;;;;12.80;5.62;;;;;;;10.08;48.38;99283.63;18301122;32;20093;-65
2022/03/30 03:12:49;;;;;;;24.08;10.68;;;;;;;10.08;48.17;99281.00;18301064;32;20118;-64
2022/03/30 03:22:54;;;;;;;15.05;7.32;;;;;;;9.98;48.56;99295.94;18302329;32;20108;-64
2022/03/30 03:32:59;;;;;;;14.20;6.15;;;;;;;9.78;49.46;99296.31;18300130;32;20136;-64
2022/03/30 03:43:05;;;;;;;16.30;6.40;;;;;;;9.78;50.23;99301.53;18306313;32;20129;-65
2022/03/30 03:53:09;;;;;;;15.93;7.70;;;;;;;9.68;50.89;99315.59;18306174;32;20093;-65
2022/03/30 04:03:15;;;;;;;17.37;7.78;;;;;;;9.50;51.12;99312.38;18306012;32;20434;-64
2022/03/30 04:13:18;;;;;;;15.45;7.07;;;;;;;9.20;51.43;99327.59;18305347;32;20140;-64
2022/03/30 04:23:23;;;;;;;16.05;7.07;;;;;;;9.21;51.39;99320.63;18305344;32;20098;-64
2022/03/30 04:33:26;;;;;;;20.70;6.95;;;;;;;8.97;51.85;99313.13;18305969;32;20115;-65
2022/03/30 04:43:31;;;;;;;17.65;6.72;;;;;;;8.39;54.49;99310.31;18304963;32;20443;-64
2022/03/30 04:53:34;;;;;;;20.55;7.55;;;;;;;8.52;53.67;99310.19;18305669;32;20115;-64
2022/03/30 05:03:38;;;;;;;13.75;7.00;;;;;;;8.51;53.93;99329.28;18305307;32;20477;-65
2022/03/30 05:13:42;;;;;;;18.58;8.00;;;;;;;8.68;53.68;99332.56;18304359;32;20112;-65
2022/03/30 05:23:46;;;;;;;15.55;8.15;;;;;;;8.87;53.43;99353.16;18302693;32;20113;-65
2022/03/30 05:33:49;;;;;;;20.65;8.43;;;;;;;9.04;52.09;99344.28;18298708;32;20119;-65
2022/03/30 05:43:54;;;;;;;15.05;6.25;;;;;;;9.22;52.26;99343.16;18300802;32;20093;-64
2022/03/30 05:53:57;;;;;;;13.52;6.68;;;;;;;9.91;50.39;99356.06;18302343;32;20094;-64
2022/03/30 06:04:02;;;;;;;17.37;7.70;;;;;;;10.64;49.68;99354.78;18300708;32;20112;-65
2022/03/30 06:14:05;;;;;;;16.08;7.05;;;;;;;11.27;48.38;99359.63;18300331;32;20112;-65
2022/03/30 06:24:11;;;;;;;12.75;5.90;;;;;;;11.97;48.30;99353.66;18294940;32;20169;-65
2022/03/30 06:34:14;;;;;;;14.93;6.50;;;;;;;12.98;44.99;99356.25;18291561;32;20137;-65
2022/03/30 06:44:19;;;;;;;13.85;7.35;;;;;;;13.96;42.43;99339.28;18300062;32;20101;-65
2022/03/30 06:54:22;;;;;;;16.98;6.45;;;;;;;16.54;37.41;99336.56;18290366;32;20108;-66
2022/03/30 07:04:49;;;;;;;20.40;6.57;;;;;;;18.21;33.58;99349.00;18292491;32;20124;-67
2022/03/30 07:14:55;;;;;;;17.85;7.30;;;;;;;18.92;32.14;99352.38;18275879;32;20125;-65
2022/03/30 07:25:00;;;;;;;13.43;7.10;;;;;;;18.22;32.70;99349.88;18305657;32;20125;-66
2022/03/30 07:35:04;;;;;;;13.18;6.90;;;;;;;19.86;28.91;99347.28;18365503;32;20108;-66
2022/03/30 07:45:11;;;;;;;17.12;7.90;;;;;;;19.76;29.34;99339.00;18306207;32;20112;-64
2022/03/30 07:55:15;;;;;;;18.20;7.03;;;;;;;20.69;27.54;99315.00;18305848;32;20093;-65
2022/03/30 08:05:21;;;;;;;16.87;7.57;;;;;;;21.04;27.53;99319.06;18306419;32;20168;-67
2022/03/30 08:15:24;;;;;;;18.85;8.27;;;;;;;18.19;32.14;99331.53;18367001;32;20097;-66
2022/03/30 08:25:29;;;;;;;19.50;7.53;;;;;;;18.27;31.81;99339.91;18367124;32;20137;-67
2022/03/30 08:35:33;;;;;;;15.68;6.70;;;;;;;19.06;31.12;99337.59;18366713;32;20138;-66
2022/03/30 08:45:38;;;;;;;15.40;7.07;;;;;;;19.42;30.63;99355.00;18367618;32;20113;-66
2022/03/30 08:55:41;;;;;;;18.67;7.75;;;;;;;19.01;30.50;99356.34;18366839;32;20141;-65
2022/03/30 09:05:46;;;;;;;17.85;7.22;;;;;;;19.11;30.57;99356.72;18365217;32;20093;-66
2022/03/30 09:15:51;;;;;;;14.70;6.47;;;;;;;19.85;29.80;99356.19;18366473;32;20125;-66
2022/03/30 09:25:56;;;;;;;14.82;6.93;;;;;;;19.78;29.15;99340.63;18363673;32;20086;-66
2022/03/30 09:35:59;;;;;;;14.70;6.07;;;;;;;20.35;28.15;99343.59;18365626;32;20101;-67
2022/03/30 09:46:09;;;;;;;12.32;5.55;;;;;;;20.87;26.85;99322.78;18365395;32;20097;-66
2022/03/30 09:56:15;;;;;;;16.87;6.55;;;;;;;21.31;26.44;99297.91;18341584;32;20093;-66
2022/03/30 10:06:22;;;;;;;17.17;5.75;;;;;;;21.61;26.67;99283.56;18363521;32;20089;-67
2022/03/30 10:16:25;;;;;;;17.08;6.00;;;;;;;22.20;25.08;99265.53;18366725;32;20097;-66
2022/03/30 10:26:35;;;;;;;13.77;5.72;;;;;;;21.40;25.45;99253.97;18371217;32;20155;-66
2022/03/30 10:36:38;;;;;;;14.32;6.85;;;;;;;22.49;24.57;99244.06;18368446;32;20152;-66
2022/03/30 10:46:44;;;;;;;17.23;7.47;;;;;;;22.54;24.82;99231.28;18361131;32;20097;-67
2022/03/30 10:56:51;;;;;;;18.00;7.72;;;;;;;22.32;24.61;99226.59;18337598;32;20115;-66
2022/03/30 11:07:40;;;;;;;17.15;7.85;;;;;;;22.28;25.82;99215.31;18369200;32;20382;-66
2022/03/30 11:17:45;;;;;;;18.33;7.37;;;;;;;21.65;26.63;99220.47;18370312;32;20109;-66
2022/03/30 11:28:13;;;;;;;17.05;7.47;;;;;;;21.30;26.91;99213.06;18367611;32;20114;-66
2022/03/30 11:38:24;;;;;;;15.43;7.45;;;;;;;20.33;28.88;99208.53;18369341;32;20096;-67
2022/03/30 11:48:36;;;;;;;14.20;6.57;;;;;;;20.84;28.69;99195.69;18350503;32;20456;-66
2022/03/30 11:58:46;;;;;;;15.15;6.85;;;;;;;20.85;29.58;99170.87;18369167;32;20182;-66
2022/03/30 12:08:51;;;;;;;14.50;5.72;;;;;;;20.52;29.40;99162.31;18368804;32;20093;-66
2022/03/30 12:18:58;;;;;;;12.85;6.12;;;;;;;20.61;29.76;99147.59;18367129;32;20104;-66
2022/03/30 12:29:06;;;;;;;15.65;5.93;;;;;;;20.89;29.66;99137.88;18351465;32;544740;-65
2022/03/30 12:39:17;;;;;;;11.95;5.72;;;;;;;19.88;30.44;99133.56;18367245;32;20089;-66
2022/03/30 12:49:33;;;;;;;11.48;5.35;;;;;;;20.16;31.36;99115.97;18368377;32;20162;-66
2022/03/30 12:59:41;;;;;;;12.85;5.45;;;;;;;20.03;31.73;99105.28;18367658;32;20090;-65
2022/03/30 13:10:02;;;;;;;12.60;5.75;;;;;;;19.50;32.37;99087.31;18364141;32;20180;-65
2022/03/30 13:20:08;;;;;;;;;;;;;;;19.53;31.67;99072.06;18359769;32;20172;-66
2022/03/30 13:30:12;;;;;;;12.37;5.40;;;;;;;19.80;31.40;99059.91;18365872;32;20267;-66
2022/03/30 13:40:16;;;;;;;10.82;4.97;;;;;;;19.61;32.03;99065.47;18366041;32;20346;-65
2022/03/30 13:50:20;;;;;;;14.20;5.12;;;;;;;18.89;32.99;99055.56;18370895;32;20707;-65
2022/03/30 14:00:27;;;;;;;12.45;6.00;;;;;;;18.69;33.17;99054.94;18373188;32;20158;-65
2022/03/30 14:10:31;;;;;;;11.12;5.72;;;;;;;18.26;33.47;99052.94;18372755;32;20117;-66
2022/03/30 14:20:36;;;;;;;9.93;4.57;;;;;;;18.18;33.16;99040.19;18373762;32;20115;-66
2022/03/30 14:30:40;;;;;;;11.65;4.78;;;;;;;18.02;33.56;99048.91;18371900;32;20085;-66
2022/03/30 14:40:45;;;;;;;11.07;4.72;;;;;;;18.06;34.18;99035.56;18371768;32;20109;-66
2022/03/30 14:50:49;;;;;;;10.40;3.90;;;;;;;17.68;35.53;99036.69;18371334;32;20093;-65
2022/03/30 15:00:53;;;;;;;10.25;4.18;;;;;;;17.70;37.55;99035.69;18370347;32;20125;-66
2022/03/30 15:10:57;;;;;;;13.35;4.25;;;;;;;18.08;37.26;99028.41;18370494;32;20389;-65
2022/03/30 15:21:02;;;;;;;12.63;4.32;;;;;;;17.47;37.21;99021.06;18370719;32;20097;-66
2022/03/30 15:31:06;;;;;;;12.85;4.82;;;;;;;17.56;37.19;99012.66;18370056;32;20147;-65
2022/03/30 15:41:11;;;;;;;9.25;3.75;;;;;;;17.38;37.85;99017.13;18369904;32;20387;-65
2022/03/30 15:51:14;;;;;;;8.95;3.90;;;;;;;17.37;38.42;99011.94;18369709;32;20105;-65
2022/03/30 16:01:19;;;;;;;8.75;3.58;;;;;;;17.45;39.31;99007.09;18369654;32;20141;-65
2022/03/30 16:21:47;;;;;;;7.40;3.30;;;;;;;17.65;39.97;98999.91;18368965;32;20097;-65
2022/03/30 16:31:53;;;;;;;6.97;3.35;;;;;;;17.52;40.40;98997.91;18369691;32;20120;-66
2022/03/30 16:41:59;;;;;;;7.85;3.35;;;;;;;17.06;41.39;98994.13;18368422;32;20139;-66
2022/03/30 16:52:03;;;;;;;7.72;3.47;;;;;;;17.41;40.83;99000.28;18367833;32;20159;-66
2022/03/30 17:02:10;;;;;;;8.82;3.42;;;;;;;17.53;40.44;98990.88;18368024;32;20108;-66
2022/03/30 17:12:14;;;;;;;7.43;3.65;;;;;;;17.60;40.04;98982.53;18367281;32;20129;-65
2022/03/30 17:22:21;;;;;;;9.20;3.53;;;;;;;17.46;40.28;98979.81;18366510;32;20097;-66
2022/03/30 17:32:25;;;;;;;8.10;3.50;;;;;;;17.38;40.14;98966.16;18366546;32;20393;-66
2022/03/30 17:42:33;;;;;;;8.13;3.70;;;;;;;17.64;39.63;98964.75;18366110;32;20097;-65
2022/03/30 17:52:38;;;;;;;7.90;3.83;;;;;;;17.39;39.56;98966.06;18365116;32;20129;-66
2022/03/30 18:02:42;;;;;;;10.38;3.40;;;;;;;17.17;39.63;98979.56;18363320;32;20098;-65
2022/03/30 18:12:47;;;;;;;9.27;3.58;;;;;;;17.05;39.46;98989.78;18363756;32;20093;-66
2022/03/30 18:22:52;;;;;;;8.57;3.50;;;;;;;17.13;39.53;98994.69;18364202;32;20148;-65
2022/03/30 18:32:57;;;;;;;10.60;3.20;;;;;;;17.05;39.90;98996.88;18362751;32;20143;-65
2022/03/30 18:43:03;;;;;;;6.97;3.08;;;;;;;17.17;39.36;99003.28;18365648;32;20089;-66
2022/03/30 18:53:06;;;;;;;10.00;2.62;;;;;;;17.02;38.18;99008.41;18370177;32;20113;-65
2022/03/30 19:03:23;;;;;;;9.57;2.85;;;;;;;17.04;37.78;99011.81;18370316;32;20434;-66
2022/03/30 19:13:27;;;;;;;8.27;3.12;;;;;;;16.90;38.41;99014.28;18370006;32;20354;-65
2022/03/30 19:23:32;;;;;;;9.48;3.22;;;;;;;16.72;40.69;99014.28;18369191;32;20094;-66
2022/03/30 19:33:37;;;;;;;8.45;3.05;;;;;;;16.78;41.50;99019.22;18368334;32;20128;-66
2022/03/30 19:43:42;;;;;;;8.30;3.42;;;;;;;16.91;41.56;99022.09;18368479;32;20181;-66
2022/03/30 19:53:45;;;;;;;9.05;3.10;;;;;;;17.04;41.53;99026.81;18367228;32;20097;-66
2022/03/30 20:03:50;;;;;;;8.48;4.03;;;;;;;17.10;41.56;99030.91;18368091;32;20442;-66
2022/03/30 20:13:53;;;;;;;8.00;3.60;;;;;;;17.02;41.86;99003.13;18365998;32;20440;-66
2022/03/30 20:23:58;;;;;;;8.65;3.50;;;;;;;16.49;43.19;99000.44;18368452;32;20370;-66
2022/03/30 20:34:01;;;;;;;8.02;2.65;;;;;;;16.40;43.33;98997.44;18367841;32;20098;-65
2022/03/30 20:44:06;;;;;;;6.60;2.75;;;;;;;16.09;43.58;98989.22;18368521;32;20220;-65
2022/03/30 20:54:10;;;;;;;8.20;3.03;;;;;;;16.08;43.30;98984.88;18368085;32;20135;-65
2022/03/30 21:04:14;;;;;;;7.85;3.00;;;;;;;16.27;42.94;98981.38;18366964;32;20093;-65
2022/03/30 21:14:18;;;;;;;8.13;3.10;;;;;;;16.25;43.25;98988.50;18367404;32;20481;-65
2022/03/30 21:24:23;;;;;;;10.43;3.30;;;;;;;16.19;43.47;98993.13;18367049;32;20093;-65
2022/03/30 21:34:26;;;;;;;9.05;3.47;;;;;;;15.98;44.18;98988.88;18366249;32;20121;-65
2022/03/30 21:44:31;;;;;;;11.35;3.47;;;;;;;16.04;44.25;98980.72;18365800;32;20112;-66
2022/03/30 21:54:34;;;;;;;12.55;2.53;;;;;;;16.27;43.78;98976.09;18364878;32;20453;-65
2022/03/30 22:04:38;;;;;;;4.80;2.30;;;;;;;16.00;44.59;98971.25;18364849;32;20089;-65
2022/03/30 22:14:42;;;;;;;7.87;2.67;;;;;;;16.14;44.33;98968.81;18371588;32;20421;-66
2022/03/30 22:24:47;;;;;;;14.02;3.55;;;;;;;16.01;44.89;98957.16;18372530;32;20092;-66
2022/03/30 22:45:12;;;;;;;6.97;2.65;;;;;;;15.69;45.66;98939.28;18371980;32;20808;-66
2022/03/30 22:55:16;;;;;;;11.12;3.33;;;;;;;15.63;46.24;98929.91;18371554;32;20108;-66
2022/03/30 23:15:41;;;;;;;;;;;;;;;15.35;47.07;98914.56;18372229;32;20099;-66
2022/03/30 23:25:46;;;;;;;9.57;3.28;;;;;;;15.54;46.96;98910.16;18370441;32;19981;-65
2022/03/30 23:35:50;;;;;;;11.27;3.25;;;;;;;15.44;47.34;98892.25;18370285;32;20450;-65
2022/03/30 23:45:56;;;;;;;11.55;4.00;;;;;;;15.37;47.69;98903.06;18370455;32;20221;-65
2022/03/30 23:55:59;;;;;;;8.77;3.50;;;;;;;15.39;47.60;98895.97;18369864;32;20093;-65
